sensor_id;sensor_type;location;lat;lon;timestamp;temperature;humidity
1381;DHT22;684;48.342;10.096;2023-02-02T00:00:48;5.10;30.60
1381;DHT22;684;48.342;10.096;2023-02-02T00:03:14;5.20;30.60
1381;DHT22;684;48.342;10.096;2023-02-02T00:05:45;5.20;30.60
1381;DHT22;684;48.342;10.096;2023-02-02T00:08:12;5.20;30.60
1381;DHT22;684;48.342;10.096;2023-02-02T00:10:39;5.20;30.50
1381;DHT22;684;48.342;10.096;2023-02-02T00:13:07;5.20;30.60
1381;DHT22;684;48.342;10.096;2023-02-02T00:15:34;5.10;31.10
1381;DHT22;684;48.342;10.096;2023-02-02T00:18:01;5.20;30.50
1381;DHT22;684;48.342;10.096;2023-02-02T00:20:28;5.20;30.50
1381;DHT22;684;48.342;10.096;2023-02-02T00:22:55;5.10;30.40
1381;DHT22;684;48.342;10.096;2023-02-02T00:25:22;5.10;30.50
1381;DHT22;684;48.342;10.096;2023-02-02T00:27:49;5.10;30.60
1381;DHT22;684;48.342;10.096;2023-02-02T00:30:17;5.10;30.60
1381;DHT22;684;48.342;10.096;2023-02-02T00:32:44;5.10;30.80
1381;DHT22;684;48.342;10.096;2023-02-02T00:35:13;5.10;30.90
1381;DHT22;684;48.342;10.096;2023-02-02T00:37:40;5.10;31.20
1381;DHT22;684;48.342;10.096;2023-02-02T00:40:08;5.00;31.20
1381;DHT22;684;48.342;10.096;2023-02-02T00:42:35;5.00;31.40
1381;DHT22;684;48.342;10.096;2023-02-02T00:45:02;5.00;31.40
1381;DHT22;684;48.342;10.096;2023-02-02T00:47:47;5.00;31.60
1381;DHT22;684;48.342;10.096;2023-02-02T00:50:15;5.00;31.50
1381;DHT22;684;48.342;10.096;2023-02-02T00:52:43;5.00;31.50
1381;DHT22;684;48.342;10.096;2023-02-02T00:55:11;5.00;31.70
1381;DHT22;684;48.342;10.096;2023-02-02T00:57:38;5.00;31.70
1381;DHT22;684;48.342;10.096;2023-02-02T01:00:07;5.00;31.80
1381;DHT22;684;48.342;10.096;2023-02-02T01:02:35;5.10;31.80
1381;DHT22;684;48.342;10.096;2023-02-02T01:05:03;5.00;31.80
1381;DHT22;684;48.342;10.096;2023-02-02T01:07:30;5.00;32.00
1381;DHT22;684;48.342;10.096;2023-02-02T01:09:56;5.00;31.90
1381;DHT22;684;48.342;10.096;2023-02-02T01:12:23;5.00;32.10
1381;DHT22;684;48.342;10.096;2023-02-02T01:14:50;5.00;32.20
1381;DHT22;684;48.342;10.096;2023-02-02T01:17:17;5.00;32.50
1381;DHT22;684;48.342;10.096;2023-02-02T01:19:44;5.00;32.50
1381;DHT22;684;48.342;10.096;2023-02-02T01:22:12;5.00;32.60
1381;DHT22;684;48.342;10.096;2023-02-02T01:24:39;5.00;32.70
1381;DHT22;684;48.342;10.096;2023-02-02T01:27:05;5.00;33.00
1381;DHT22;684;48.342;10.096;2023-02-02T01:29:32;5.00;33.10
1381;DHT22;684;48.342;10.096;2023-02-02T01:31:59;5.00;33.30
1381;DHT22;684;48.342;10.096;2023-02-02T01:34:25;4.90;33.50
1381;DHT22;684;48.342;10.096;2023-02-02T01:36:52;4.90;33.50
1381;DHT22;684;48.342;10.096;2023-02-02T01:39:20;4.90;33.60
1381;DHT22;684;48.342;10.096;2023-02-02T01:41:47;4.90;33.80
1381;DHT22;684;48.342;10.096;2023-02-02T01:47:21;4.90;34.20
1381;DHT22;684;48.342;10.096;2023-02-02T01:49:48;4.90;34.00
1381;DHT22;684;48.342;10.096;2023-02-02T01:52:17;4.90;34.10
1381;DHT22;684;48.342;10.096;2023-02-02T01:54:50;4.90;34.30
1381;DHT22;684;48.342;10.096;2023-02-02T01:57:21;4.80;34.30
1381;DHT22;684;48.342;10.096;2023-02-02T01:59:50;4.80;34.30
1381;DHT22;684;48.342;10.096;2023-02-02T02:02:20;4.80;34.30
1381;DHT22;684;48.342;10.096;2023-02-02T02:04:47;4.80;34.10
1381;DHT22;684;48.342;10.096;2023-02-02T02:07:15;4.80;34.10
1381;DHT22;684;48.342;10.096;2023-02-02T02:09:42;4.80;34.20
1381;DHT22;684;48.342;10.096;2023-02-02T02:12:11;4.80;34.10
1381;DHT22;684;48.342;10.096;2023-02-02T02:14:40;4.80;34.00
1381;DHT22;684;48.342;10.096;2023-02-02T02:17:37;4.80;34.00
1381;DHT22;684;48.342;10.096;2023-02-02T02:24:04;4.80;34.00
1381;DHT22;684;48.342;10.096;2023-02-02T02:30:10;4.80;34.30
1381;DHT22;684;48.342;10.096;2023-02-02T02:32:47;4.80;34.60
1381;DHT22;684;48.342;10.096;2023-02-02T02:35:22;4.80;34.60
1381;DHT22;684;48.342;10.096;2023-02-02T02:37:57;4.80;34.60
1381;DHT22;684;48.342;10.096;2023-02-02T02:40:31;4.80;34.80
1381;DHT22;684;48.342;10.096;2023-02-02T02:43:02;4.80;34.80
1381;DHT22;684;48.342;10.096;2023-02-02T02:45:31;4.90;34.70
1381;DHT22;684;48.342;10.096;2023-02-02T02:48:02;4.80;34.80
1381;DHT22;684;48.342;10.096;2023-02-02T02:50:29;4.80;35.00
1381;DHT22;684;48.342;10.096;2023-02-02T02:52:59;4.80;35.00
1381;DHT22;684;48.342;10.096;2023-02-02T02:55:35;4.80;35.20
1381;DHT22;684;48.342;10.096;2023-02-02T02:58:08;4.80;35.30
1381;DHT22;684;48.342;10.096;2023-02-02T03:00:45;4.80;35.40
1381;DHT22;684;48.342;10.096;2023-02-02T03:03:22;4.80;35.40
1381;DHT22;684;48.342;10.096;2023-02-02T03:05:55;4.80;35.40
1381;DHT22;684;48.342;10.096;2023-02-02T03:08:29;4.80;35.30
1381;DHT22;684;48.342;10.096;2023-02-02T03:10:58;4.80;35.40
1381;DHT22;684;48.342;10.096;2023-02-02T03:13:26;4.80;35.40
1381;DHT22;684;48.342;10.096;2023-02-02T03:15:55;4.70;35.40
1381;DHT22;684;48.342;10.096;2023-02-02T03:18:25;4.70;35.30
1381;DHT22;684;48.342;10.096;2023-02-02T03:20:52;4.80;35.20
1381;DHT22;684;48.342;10.096;2023-02-02T03:23:19;4.80;35.00
1381;DHT22;684;48.342;10.096;2023-02-02T03:25:46;4.80;35.00
1381;DHT22;684;48.342;10.096;2023-02-02T03:28:14;4.80;34.70
1381;DHT22;684;48.342;10.096;2023-02-02T03:30:42;4.80;34.90
1381;DHT22;684;48.342;10.096;2023-02-02T03:33:10;4.80;34.70
1381;DHT22;684;48.342;10.096;2023-02-02T03:35:38;4.90;34.50
1381;DHT22;684;48.342;10.096;2023-02-02T03:38:05;4.90;34.50
1381;DHT22;684;48.342;10.096;2023-02-02T03:40:32;4.90;34.60
1381;DHT22;684;48.342;10.096;2023-02-02T03:42:58;4.90;34.50
1381;DHT22;684;48.342;10.096;2023-02-02T03:45:26;4.90;34.50
1381;DHT22;684;48.342;10.096;2023-02-02T03:47:53;4.90;34.40
1381;DHT22;684;48.342;10.096;2023-02-02T03:50:20;4.90;34.30
1381;DHT22;684;48.342;10.096;2023-02-02T03:52:48;4.90;34.30
1381;DHT22;684;48.342;10.096;2023-02-02T03:55:15;4.90;34.30
1381;DHT22;684;48.342;10.096;2023-02-02T03:57:42;4.90;34.10
1381;DHT22;684;48.342;10.096;2023-02-02T04:00:10;4.90;34.10
1381;DHT22;684;48.342;10.096;2023-02-02T04:02:37;4.90;34.20
1381;DHT22;684;48.342;10.096;2023-02-02T04:05:04;5.00;34.00
1381;DHT22;684;48.342;10.096;2023-02-02T04:07:31;5.00;34.00
1381;DHT22;684;48.342;10.096;2023-02-02T04:09:59;5.00;33.90
1381;DHT22;684;48.342;10.096;2023-02-02T04:12:26;5.00;33.90
1381;DHT22;684;48.342;10.096;2023-02-02T04:14:53;5.00;33.80
1381;DHT22;684;48.342;10.096;2023-02-02T04:17:20;5.00;33.70
1381;DHT22;684;48.342;10.096;2023-02-02T04:19:46;5.00;33.70
1381;DHT22;684;48.342;10.096;2023-02-02T04:22:13;5.00;33.80
1381;DHT22;684;48.342;10.096;2023-02-02T04:24:40;5.00;33.80
1381;DHT22;684;48.342;10.096;2023-02-02T04:27:08;5.00;33.80
1381;DHT22;684;48.342;10.096;2023-02-02T04:29:34;5.00;33.70
1381;DHT22;684;48.342;10.096;2023-02-02T04:32:01;5.00;33.80
1381;DHT22;684;48.342;10.096;2023-02-02T04:34:28;5.00;33.70
1381;DHT22;684;48.342;10.096;2023-02-02T04:36:54;5.00;33.70
1381;DHT22;684;48.342;10.096;2023-02-02T04:39:21;5.00;33.80
1381;DHT22;684;48.342;10.096;2023-02-02T04:41:48;5.10;33.70
1381;DHT22;684;48.342;10.096;2023-02-02T04:44:16;5.10;33.60
1381;DHT22;684;48.342;10.096;2023-02-02T04:46:43;5.00;33.50
1381;DHT22;684;48.342;10.096;2023-02-02T04:49:11;5.10;33.60
1381;DHT22;684;48.342;10.096;2023-02-02T04:51:38;5.10;33.60
1381;DHT22;684;48.342;10.096;2023-02-02T04:54:06;5.10;33.60
1381;DHT22;684;48.342;10.096;2023-02-02T04:56:33;5.10;33.60
1381;DHT22;684;48.342;10.096;2023-02-02T04:59:00;5.10;33.50
1381;DHT22;684;48.342;10.096;2023-02-02T05:01:28;5.10;33.70
1381;DHT22;684;48.342;10.096;2023-02-02T05:03:55;5.10;33.60
1381;DHT22;684;48.342;10.096;2023-02-02T05:06:22;5.10;33.60
1381;DHT22;684;48.342;10.096;2023-02-02T05:08:49;5.10;33.50
1381;DHT22;684;48.342;10.096;2023-02-02T05:11:18;5.10;33.50
1381;DHT22;684;48.342;10.096;2023-02-02T05:13:46;5.10;33.50
1381;DHT22;684;48.342;10.096;2023-02-02T05:16:13;5.10;33.40
1381;DHT22;684;48.342;10.096;2023-02-02T05:18:41;5.10;33.30
1381;DHT22;684;48.342;10.096;2023-02-02T05:21:08;5.10;33.40
1381;DHT22;684;48.342;10.096;2023-02-02T05:23:35;5.10;33.40
1381;DHT22;684;48.342;10.096;2023-02-02T05:26:02;5.10;33.30
1381;DHT22;684;48.342;10.096;2023-02-02T05:28:30;5.10;33.40
1381;DHT22;684;48.342;10.096;2023-02-02T05:31:03;5.10;33.40
1381;DHT22;684;48.342;10.096;2023-02-02T05:33:30;5.10;33.20
1381;DHT22;684;48.342;10.096;2023-02-02T05:35:58;5.20;33.20
1381;DHT22;684;48.342;10.096;2023-02-02T05:38:25;5.10;33.40
1381;DHT22;684;48.342;10.096;2023-02-02T05:40:52;5.20;33.30
1381;DHT22;684;48.342;10.096;2023-02-02T05:43:18;5.20;33.20
1381;DHT22;684;48.342;10.096;2023-02-02T05:45:45;5.10;33.30
1381;DHT22;684;48.342;10.096;2023-02-02T05:48:12;5.20;33.50
1381;DHT22;684;48.342;10.096;2023-02-02T05:50:40;5.20;33.10
1381;DHT22;684;48.342;10.096;2023-02-02T05:53:09;5.20;33.20
1381;DHT22;684;48.342;10.096;2023-02-02T05:55:36;5.20;33.10
1381;DHT22;684;48.342;10.096;2023-02-02T05:58:03;5.20;33.00
1381;DHT22;684;48.342;10.096;2023-02-02T06:00:30;5.20;32.90
1381;DHT22;684;48.342;10.096;2023-02-02T06:02:56;5.20;33.10
1381;DHT22;684;48.342;10.096;2023-02-02T06:05:23;5.20;32.90
1381;DHT22;684;48.342;10.096;2023-02-02T06:07:50;5.20;32.80
1381;DHT22;684;48.342;10.096;2023-02-02T06:10:18;5.20;33.00
1381;DHT22;684;48.342;10.096;2023-02-02T06:12:45;5.20;33.10
1381;DHT22;684;48.342;10.096;2023-02-02T06:15:12;5.20;33.10
1381;DHT22;684;48.342;10.096;2023-02-02T06:17:38;5.20;33.20
1381;DHT22;684;48.342;10.096;2023-02-02T06:20:05;5.20;33.10
1381;DHT22;684;48.342;10.096;2023-02-02T06:22:32;5.20;33.30
1381;DHT22;684;48.342;10.096;2023-02-02T06:24:59;5.20;33.20
1381;DHT22;684;48.342;10.096;2023-02-02T06:27:30;5.20;33.30
1381;DHT22;684;48.342;10.096;2023-02-02T06:29:56;5.20;33.30
1381;DHT22;684;48.342;10.096;2023-02-02T06:32:23;5.20;33.30
1381;DHT22;684;48.342;10.096;2023-02-02T06:34:50;5.20;33.20
1381;DHT22;684;48.342;10.096;2023-02-02T06:37:16;5.20;33.10
1381;DHT22;684;48.342;10.096;2023-02-02T06:39:43;5.20;33.10
1381;DHT22;684;48.342;10.096;2023-02-02T06:42:10;5.20;33.30
1381;DHT22;684;48.342;10.096;2023-02-02T06:44:38;5.20;33.40
1381;DHT22;684;48.342;10.096;2023-02-02T06:47:05;5.20;33.40
1381;DHT22;684;48.342;10.096;2023-02-02T06:49:32;5.20;33.40
1381;DHT22;684;48.342;10.096;2023-02-02T06:51:58;5.20;33.40
1381;DHT22;684;48.342;10.096;2023-02-02T06:54:25;5.20;33.50
1381;DHT22;684;48.342;10.096;2023-02-02T06:56:52;5.10;33.60
1381;DHT22;684;48.342;10.096;2023-02-02T06:59:19;5.10;33.70
1381;DHT22;684;48.342;10.096;2023-02-02T07:01:49;5.10;33.80
1381;DHT22;684;48.342;10.096;2023-02-02T07:04:16;5.10;34.00
1381;DHT22;684;48.342;10.096;2023-02-02T07:06:43;5.20;34.00
1381;DHT22;684;48.342;10.096;2023-02-02T07:09:09;5.20;34.10
1381;DHT22;684;48.342;10.096;2023-02-02T07:11:36;5.20;34.10
1381;DHT22;684;48.342;10.096;2023-02-02T07:14:03;5.10;34.30
1381;DHT22;684;48.342;10.096;2023-02-02T07:16:31;5.10;34.50
1381;DHT22;684;48.342;10.096;2023-02-02T07:18:59;5.20;34.50
1381;DHT22;684;48.342;10.096;2023-02-02T07:21:26;5.10;34.70
1381;DHT22;684;48.342;10.096;2023-02-02T07:23:54;5.20;35.00
1381;DHT22;684;48.342;10.096;2023-02-02T07:26:21;5.10;35.10
1381;DHT22;684;48.342;10.096;2023-02-02T07:28:47;5.10;35.20
1381;DHT22;684;48.342;10.096;2023-02-02T07:31:16;5.10;35.20
1381;DHT22;684;48.342;10.096;2023-02-02T07:33:43;5.10;35.50
1381;DHT22;684;48.342;10.096;2023-02-02T07:36:13;5.10;35.60
1381;DHT22;684;48.342;10.096;2023-02-02T07:38:42;5.10;35.50
1381;DHT22;684;48.342;10.096;2023-02-02T07:41:08;5.10;35.60
1381;DHT22;684;48.342;10.096;2023-02-02T07:43:35;5.10;35.70
1381;DHT22;684;48.342;10.096;2023-02-02T07:46:03;5.20;35.70
1381;DHT22;684;48.342;10.096;2023-02-02T07:48:33;5.20;35.70
1381;DHT22;684;48.342;10.096;2023-02-02T07:51:00;5.20;35.70
1381;DHT22;684;48.342;10.096;2023-02-02T07:53:28;5.20;35.80
1381;DHT22;684;48.342;10.096;2023-02-02T07:56:05;5.20;35.90
1381;DHT22;684;48.342;10.096;2023-02-02T07:58:32;5.20;36.00
1381;DHT22;684;48.342;10.096;2023-02-02T08:01:00;5.20;36.00
1381;DHT22;684;48.342;10.096;2023-02-02T08:03:26;5.20;36.00
1381;DHT22;684;48.342;10.096;2023-02-02T08:05:53;5.20;36.00
1381;DHT22;684;48.342;10.096;2023-02-02T08:08:21;5.20;35.90
1381;DHT22;684;48.342;10.096;2023-02-02T08:10:50;5.30;35.90
1381;DHT22;684;48.342;10.096;2023-02-02T08:13:18;5.30;35.90
1381;DHT22;684;48.342;10.096;2023-02-02T08:15:45;5.30;36.00
1381;DHT22;684;48.342;10.096;2023-02-02T08:18:12;5.30;36.00
1381;DHT22;684;48.342;10.096;2023-02-02T08:20:38;5.40;36.20
1381;DHT22;684;48.342;10.096;2023-02-02T08:23:05;5.40;36.80
1381;DHT22;684;48.342;10.096;2023-02-02T08:25:38;5.40;36.30
1381;DHT22;684;48.342;10.096;2023-02-02T08:28:06;5.50;36.30
1381;DHT22;684;48.342;10.096;2023-02-02T08:30:34;5.50;36.20
1381;DHT22;684;48.342;10.096;2023-02-02T08:33:01;5.50;36.10
1381;DHT22;684;48.342;10.096;2023-02-02T08:35:28;5.60;36.10
1381;DHT22;684;48.342;10.096;2023-02-02T08:37:54;5.60;36.00
1381;DHT22;684;48.342;10.096;2023-02-02T08:40:21;5.60;36.10
1381;DHT22;684;48.342;10.096;2023-02-02T08:42:52;5.60;36.30
1381;DHT22;684;48.342;10.096;2023-02-02T08:45:20;5.60;36.30
1381;DHT22;684;48.342;10.096;2023-02-02T08:47:47;5.70;36.20
1381;DHT22;684;48.342;10.096;2023-02-02T08:50:14;5.70;36.00
1381;DHT22;684;48.342;10.096;2023-02-02T08:52:40;5.70;35.90
1381;DHT22;684;48.342;10.096;2023-02-02T08:55:08;5.70;35.80
1381;DHT22;684;48.342;10.096;2023-02-02T08:57:34;5.80;35.70
1381;DHT22;684;48.342;10.096;2023-02-02T09:00:02;5.80;35.70
1381;DHT22;684;48.342;10.096;2023-02-02T09:02:30;5.80;35.80
1381;DHT22;684;48.342;10.096;2023-02-02T09:04:57;5.80;35.70
1381;DHT22;684;48.342;10.096;2023-02-02T09:07:23;5.90;35.80
1381;DHT22;684;48.342;10.096;2023-02-02T09:09:50;5.90;35.90
1381;DHT22;684;48.342;10.096;2023-02-02T09:12:20;5.90;35.90
1381;DHT22;684;48.342;10.096;2023-02-02T09:14:46;5.90;35.90
1381;DHT22;684;48.342;10.096;2023-02-02T09:17:13;5.90;35.70
1381;DHT22;684;48.342;10.096;2023-02-02T09:19:41;5.90;35.80
1381;DHT22;684;48.342;10.096;2023-02-02T09:22:08;6.00;35.70
1381;DHT22;684;48.342;10.096;2023-02-02T09:24:35;6.00;35.60
1381;DHT22;684;48.342;10.096;2023-02-02T09:27:01;6.00;35.40
1381;DHT22;684;48.342;10.096;2023-02-02T09:29:28;6.10;35.50
1381;DHT22;684;48.342;10.096;2023-02-02T09:31:55;6.10;35.30
1381;DHT22;684;48.342;10.096;2023-02-02T09:34:22;6.10;35.40
1381;DHT22;684;48.342;10.096;2023-02-02T09:36:50;6.10;35.30
1381;DHT22;684;48.342;10.096;2023-02-02T09:39:17;6.10;35.40
1381;DHT22;684;48.342;10.096;2023-02-02T09:42:13;6.10;35.20
1381;DHT22;684;48.342;10.096;2023-02-02T09:44:56;6.10;35.40
1381;DHT22;684;48.342;10.096;2023-02-02T09:47:29;6.00;35.30
1381;DHT22;684;48.342;10.096;2023-02-02T09:49:59;6.00;35.30
1381;DHT22;684;48.342;10.096;2023-02-02T09:52:32;6.00;35.50
1381;DHT22;684;48.342;10.096;2023-02-02T09:55:02;6.00;35.40
1381;DHT22;684;48.342;10.096;2023-02-02T09:57:36;6.10;35.40
1381;DHT22;684;48.342;10.096;2023-02-02T10:00:04;6.00;35.10
1381;DHT22;684;48.342;10.096;2023-02-02T10:02:35;6.00;35.70
1381;DHT22;684;48.342;10.096;2023-02-02T10:05:08;6.00;35.10
1381;DHT22;684;48.342;10.096;2023-02-02T10:07:42;6.10;35.30
1381;DHT22;684;48.342;10.096;2023-02-02T10:10:15;6.10;35.50
1381;DHT22;684;48.342;10.096;2023-02-02T10:12:46;6.10;35.40
1381;DHT22;684;48.342;10.096;2023-02-02T10:15:20;6.20;35.50
1381;DHT22;684;48.342;10.096;2023-02-02T10:17:52;6.20;35.50
1381;DHT22;684;48.342;10.096;2023-02-02T10:20:29;6.20;35.60
1381;DHT22;684;48.342;10.096;2023-02-02T10:23:09;6.20;35.60
1381;DHT22;684;48.342;10.096;2023-02-02T10:25:43;6.20;35.60
1381;DHT22;684;48.342;10.096;2023-02-02T10:28:17;6.20;35.60
1381;DHT22;684;48.342;10.096;2023-02-02T10:30:45;6.30;35.70
1381;DHT22;684;48.342;10.096;2023-02-02T10:33:20;6.30;35.60
1381;DHT22;684;48.342;10.096;2023-02-02T10:35:54;6.40;35.50
1381;DHT22;684;48.342;10.096;2023-02-02T10:38:33;6.40;36.00
1381;DHT22;684;48.342;10.096;2023-02-02T10:41:07;6.40;35.60
1381;DHT22;684;48.342;10.096;2023-02-02T10:43:55;6.50;35.50
1381;DHT22;684;48.342;10.096;2023-02-02T10:46:29;6.50;35.70
1381;DHT22;684;48.342;10.096;2023-02-02T10:49:10;6.60;35.60
1381;DHT22;684;48.342;10.096;2023-02-02T10:51:38;6.60;35.50
1381;DHT22;684;48.342;10.096;2023-02-02T10:54:24;6.60;35.40
1381;DHT22;684;48.342;10.096;2023-02-02T10:56:58;6.70;35.80
1381;DHT22;684;48.342;10.096;2023-02-02T10:59:29;6.70;35.60
1381;DHT22;684;48.342;10.096;2023-02-02T11:01:57;6.80;35.20
1381;DHT22;684;48.342;10.096;2023-02-02T11:04:25;6.90;35.30
1381;DHT22;684;48.342;10.096;2023-02-02T11:07:11;6.90;35.10
1381;DHT22;684;48.342;10.096;2023-02-02T11:09:46;6.90;35.20
1381;DHT22;684;48.342;10.096;2023-02-02T11:12:17;7.00;35.00
1381;DHT22;684;48.342;10.096;2023-02-02T11:14:48;7.10;34.80
1381;DHT22;684;48.342;10.096;2023-02-02T11:17:19;7.10;34.40
1381;DHT22;684;48.342;10.096;2023-02-02T11:19:46;7.10;34.50
1381;DHT22;684;48.342;10.096;2023-02-02T11:22:28;7.10;34.20
1381;DHT22;684;48.342;10.096;2023-02-02T11:24:59;7.10;34.40
1381;DHT22;684;48.342;10.096;2023-02-02T11:27:27;7.10;34.60
1381;DHT22;684;48.342;10.096;2023-02-02T11:29:57;7.10;34.50
1381;DHT22;684;48.342;10.096;2023-02-02T11:32:27;7.10;34.80
1381;DHT22;684;48.342;10.096;2023-02-02T11:35:14;7.20;34.70
1381;DHT22;684;48.342;10.096;2023-02-02T11:38:06;7.20;35.00
1381;DHT22;684;48.342;10.096;2023-02-02T11:40:36;7.20;34.90
1381;DHT22;684;48.342;10.096;2023-02-02T11:43:12;7.20;34.80
1381;DHT22;684;48.342;10.096;2023-02-02T11:45:41;7.20;34.40
1381;DHT22;684;48.342;10.096;2023-02-02T11:48:14;7.10;34.70
1381;DHT22;684;48.342;10.096;2023-02-02T11:50:44;7.10;34.80
1381;DHT22;684;48.342;10.096;2023-02-02T11:53:21;7.10;34.80
1381;DHT22;684;48.342;10.096;2023-02-02T11:55:51;7.00;35.00
1381;DHT22;684;48.342;10.096;2023-02-02T11:58:20;7.00;35.20
1381;DHT22;684;48.342;10.096;2023-02-02T12:00:51;7.00;35.50
1381;DHT22;684;48.342;10.096;2023-02-02T12:03:32;7.00;35.10
1381;DHT22;684;48.342;10.096;2023-02-02T12:05:59;7.00;35.30
1381;DHT22;684;48.342;10.096;2023-02-02T12:08:28;7.00;35.50
1381;DHT22;684;48.342;10.096;2023-02-02T12:11:01;7.00;35.60
1381;DHT22;684;48.342;10.096;2023-02-02T12:13:43;6.90;36.00
1381;DHT22;684;48.342;10.096;2023-02-02T12:16:23;6.90;36.20
1381;DHT22;684;48.342;10.096;2023-02-02T12:19:04;6.90;36.30
1381;DHT22;684;48.342;10.096;2023-02-02T12:21:42;6.90;36.20
1381;DHT22;684;48.342;10.096;2023-02-02T12:24:28;6.90;36.40
1381;DHT22;684;48.342;10.096;2023-02-02T12:27:05;6.90;36.70
1381;DHT22;684;48.342;10.096;2023-02-02T12:29:57;6.90;36.50
1381;DHT22;684;48.342;10.096;2023-02-02T12:32:39;6.90;36.80
1381;DHT22;684;48.342;10.096;2023-02-02T12:35:23;7.00;36.60
1381;DHT22;684;48.342;10.096;2023-02-02T12:38:01;7.00;36.50
1381;DHT22;684;48.342;10.096;2023-02-02T12:40:57;7.00;36.40
1381;DHT22;684;48.342;10.096;2023-02-02T12:43:36;7.00;36.50
1381;DHT22;684;48.342;10.096;2023-02-02T12:46:24;7.10;36.40
1381;DHT22;684;48.342;10.096;2023-02-02T12:49:12;7.10;36.60
1381;DHT22;684;48.342;10.096;2023-02-02T12:51:53;7.10;36.80
1381;DHT22;684;48.342;10.096;2023-02-02T12:54:49;7.10;37.30
1381;DHT22;684;48.342;10.096;2023-02-02T12:57:25;7.10;36.90
1381;DHT22;684;48.342;10.096;2023-02-02T13:00:18;7.20;36.60
1381;DHT22;684;48.342;10.096;2023-02-02T13:02:59;7.20;36.60
1381;DHT22;684;48.342;10.096;2023-02-02T13:05:42;7.20;36.60
1381;DHT22;684;48.342;10.096;2023-02-02T13:08:13;7.20;36.50
1381;DHT22;684;48.342;10.096;2023-02-02T13:10:42;7.10;36.20
1381;DHT22;684;48.342;10.096;2023-02-02T13:13:15;7.20;36.40
1381;DHT22;684;48.342;10.096;2023-02-02T13:15:46;7.20;36.30
1381;DHT22;684;48.342;10.096;2023-02-02T13:18:17;7.10;36.30
1381;DHT22;684;48.342;10.096;2023-02-02T13:20:47;7.10;36.50
1381;DHT22;684;48.342;10.096;2023-02-02T13:23:17;7.10;36.60
1381;DHT22;684;48.342;10.096;2023-02-02T13:25:49;7.00;36.80
1381;DHT22;684;48.342;10.096;2023-02-02T13:28:29;7.00;36.80
1381;DHT22;684;48.342;10.096;2023-02-02T13:31:01;6.90;37.10
1381;DHT22;684;48.342;10.096;2023-02-02T13:33:31;6.90;37.00
1381;DHT22;684;48.342;10.096;2023-02-02T13:36:02;6.90;37.10
1381;DHT22;684;48.342;10.096;2023-02-02T13:38:30;6.90;37.40
1381;DHT22;684;48.342;10.096;2023-02-02T13:41:01;6.80;37.50
1381;DHT22;684;48.342;10.096;2023-02-02T13:43:36;6.80;37.50
1381;DHT22;684;48.342;10.096;2023-02-02T13:46:19;6.80;37.60
1381;DHT22;684;48.342;10.096;2023-02-02T13:48:56;6.70;37.90
1381;DHT22;684;48.342;10.096;2023-02-02T13:51:50;6.70;37.90
1381;DHT22;684;48.342;10.096;2023-02-02T14:00:22;6.70;38.30
1381;DHT22;684;48.342;10.096;2023-02-02T14:02:53;6.60;38.10
1381;DHT22;684;48.342;10.096;2023-02-02T14:05:23;6.60;38.30
1381;DHT22;684;48.342;10.096;2023-02-02T14:07:59;6.60;38.20
1381;DHT22;684;48.342;10.096;2023-02-02T14:10:30;6.60;38.40
1381;DHT22;684;48.342;10.096;2023-02-02T14:13:07;6.50;38.20
1381;DHT22;684;48.342;10.096;2023-02-02T14:15:57;6.50;38.20
1381;DHT22;684;48.342;10.096;2023-02-02T14:18:54;6.50;38.20
1381;DHT22;684;48.342;10.096;2023-02-02T14:21:59;6.50;38.70
1381;DHT22;684;48.342;10.096;2023-02-02T14:24:47;6.40;39.00
1381;DHT22;684;48.342;10.096;2023-02-02T14:30:32;6.40;39.40
1381;DHT22;684;48.342;10.096;2023-02-02T14:33:25;6.40;39.40
1381;DHT22;684;48.342;10.096;2023-02-02T14:36:03;6.40;39.70
1381;DHT22;684;48.342;10.096;2023-02-02T14:41:29;6.40;39.60
1381;DHT22;684;48.342;10.096;2023-02-02T14:44:14;6.40;39.60
1381;DHT22;684;48.342;10.096;2023-02-02T14:46:41;6.30;39.50
1381;DHT22;684;48.342;10.096;2023-02-02T14:49:21;6.40;39.30
1381;DHT22;684;48.342;10.096;2023-02-02T14:51:57;6.30;39.20
1381;DHT22;684;48.342;10.096;2023-02-02T14:54:32;6.30;39.10
1381;DHT22;684;48.342;10.096;2023-02-02T14:57:02;6.30;39.10
1381;DHT22;684;48.342;10.096;2023-02-02T14:59:33;6.30;39.00
1381;DHT22;684;48.342;10.096;2023-02-02T15:02:13;6.40;38.90
1381;DHT22;684;48.342;10.096;2023-02-02T15:04:41;6.30;38.80
1381;DHT22;684;48.342;10.096;2023-02-02T15:07:36;6.40;38.50
1381;DHT22;684;48.342;10.096;2023-02-02T15:10:04;6.30;38.90
1381;DHT22;684;48.342;10.096;2023-02-02T15:12:36;6.40;38.60
1381;DHT22;684;48.342;10.096;2023-02-02T15:15:14;6.40;38.70
1381;DHT22;684;48.342;10.096;2023-02-02T15:18:02;6.40;38.90
1381;DHT22;684;48.342;10.096;2023-02-02T15:20:34;6.30;39.30
1381;DHT22;684;48.342;10.096;2023-02-02T15:23:05;6.30;39.30
1381;DHT22;684;48.342;10.096;2023-02-02T15:25:39;6.30;39.40
1381;DHT22;684;48.342;10.096;2023-02-02T15:28:12;6.30;40.30
1381;DHT22;684;48.342;10.096;2023-02-02T15:30:46;6.30;39.80
1381;DHT22;684;48.342;10.096;2023-02-02T15:33:22;6.30;39.90
1381;DHT22;684;48.342;10.096;2023-02-02T15:35:51;6.30;40.10
1381;DHT22;684;48.342;10.096;2023-02-02T15:38:20;6.30;39.90
1381;DHT22;684;48.342;10.096;2023-02-02T15:40:49;6.30;39.90
1381;DHT22;684;48.342;10.096;2023-02-02T15:43:17;6.30;40.00
1381;DHT22;684;48.342;10.096;2023-02-02T15:45:46;6.30;40.10
1381;DHT22;684;48.342;10.096;2023-02-02T15:48:23;6.30;40.10
1381;DHT22;684;48.342;10.096;2023-02-02T15:50:53;6.30;40.30
1381;DHT22;684;48.342;10.096;2023-02-02T15:53:26;6.30;40.00
1381;DHT22;684;48.342;10.096;2023-02-02T15:55:54;6.30;40.10
1381;DHT22;684;48.342;10.096;2023-02-02T15:58:31;6.20;39.90
1381;DHT22;684;48.342;10.096;2023-02-02T16:01:02;6.20;40.10
1381;DHT22;684;48.342;10.096;2023-02-02T16:03:34;6.20;40.20
1381;DHT22;684;48.342;10.096;2023-02-02T16:06:05;6.20;40.30
1381;DHT22;684;48.342;10.096;2023-02-02T16:08:36;6.20;40.40
1381;DHT22;684;48.342;10.096;2023-02-02T16:11:07;6.20;40.40
1381;DHT22;684;48.342;10.096;2023-02-02T16:13:35;6.20;40.10
1381;DHT22;684;48.342;10.096;2023-02-02T16:16:04;6.20;40.10
1381;DHT22;684;48.342;10.096;2023-02-02T16:18:32;6.20;40.40
1381;DHT22;684;48.342;10.096;2023-02-02T16:21:02;6.20;40.40
1381;DHT22;684;48.342;10.096;2023-02-02T16:23:34;6.20;40.30
1381;DHT22;684;48.342;10.096;2023-02-02T16:26:03;6.20;40.40
1381;DHT22;684;48.342;10.096;2023-02-02T16:28:31;6.20;40.40
1381;DHT22;684;48.342;10.096;2023-02-02T16:30:59;6.20;40.40
1381;DHT22;684;48.342;10.096;2023-02-02T16:33:33;6.20;40.20
1381;DHT22;684;48.342;10.096;2023-02-02T16:36:00;6.20;40.10
1381;DHT22;684;48.342;10.096;2023-02-02T16:38:31;6.20;40.00
1381;DHT22;684;48.342;10.096;2023-02-02T16:41:06;6.20;40.20
1381;DHT22;684;48.342;10.096;2023-02-02T16:43:34;6.20;40.00
1381;DHT22;684;48.342;10.096;2023-02-02T16:46:04;6.20;40.00
1381;DHT22;684;48.342;10.096;2023-02-02T16:48:34;6.20;39.80
1381;DHT22;684;48.342;10.096;2023-02-02T16:51:23;6.20;39.80
1381;DHT22;684;48.342;10.096;2023-02-02T16:53:59;6.20;39.90
1381;DHT22;684;48.342;10.096;2023-02-02T16:56:34;6.20;39.80
1381;DHT22;684;48.342;10.096;2023-02-02T16:59:05;6.20;39.70
1381;DHT22;684;48.342;10.096;2023-02-02T17:01:36;6.20;39.40
1381;DHT22;684;48.342;10.096;2023-02-02T17:04:06;6.20;39.40